map of NVA home
Great Circle Mapper logo
NVA - Airport
Location
City:  Neiva, Colombia
Name:Benito Salas
ICAO / IATA:SKNV / NVA

Details
Type:Airport (Aerodrome, Airfield)
Latitude:2°57'02"N (2.950422)
Longitude:75°17'38"W (-75.293982)
Elevation:1464 ft (446 m)
Runways:1
Longest:5880 × 131 ft (1792 × 40 m), paved

Time
Time Zone:UTC-5
Local Time:

Weather
METAR:SKNV 300200Z 00000KT 9999 NSC 29/15 A2986

Related Locations
Nearby:
Farthest:PLM: 12450 mi / 20037 km
Palembang [Sultan Mahmud Badaruddin II], ID

Find:

   beyond  
but within

Other Information
Maps:
NOTAMs:
Links:
Sources:

  
flag of Colombia   

Sectional Chart

Flight Planning
at skyvector.com

Satellite Image

Google Maps Satellite View

 

Copyright © 2004-2014 Karl L. Swartz. All rights reserved.
The Great Circle Mapper name and logo are trademarks of the Great Circle Mapper.
All other trademarks mentioned herein belong to their respective owners.
Please see credits for attibutions and further copyright information.

  Follow gcmap on Facebook Follow gcmap on Twitter

hCard Microformat

Geo Microformat